createdAt,value
2023-04-09T00:01:02.585Z,56.44
2023-04-09T00:02:32.584Z,57.73
2023-04-09T00:04:15.604Z,59.17
2023-04-09T00:05:56.832Z,60.74
2023-04-09T00:07:32.842Z,62.18
2023-04-09T00:09:13.422Z,63.95
2023-04-09T00:10:37.643Z,63.60
2023-04-09T00:12:06.406Z,60.98
2023-04-09T00:13:39.056Z,58.04
2023-04-09T00:15:20.658Z,56.08
2023-04-09T00:17:01.873Z,56.97
2023-04-09T00:18:31.064Z,58.41
2023-04-09T00:19:55.225Z,59.72
2023-04-09T00:21:21.148Z,61.22
2023-04-09T00:23:15.793Z,62.37
2023-04-09T00:25:01.153Z,64.46
2023-04-09T00:26:34.561Z,62.89
2023-04-09T00:28:07.693Z,60.34
2023-04-09T00:29:37.113Z,57.26
2023-04-09T00:31:08.410Z,56.26
2023-04-09T00:32:38.007Z,57.15
2023-04-09T00:34:13.493Z,58.53
2023-04-09T00:35:54.733Z,60.34
2023-04-09T00:37:28.583Z,61.46
2023-04-09T00:39:09.448Z,63.44
2023-04-09T00:40:35.724Z,64.17
2023-04-09T00:42:15.316Z,61.80
2023-04-09T00:43:56.411Z,58.34
2023-04-09T00:45:32.443Z,56.20
2023-04-09T00:46:56.500Z,56.71
2023-04-09T00:48:18.042Z,58.08
2023-04-09T00:49:51.319Z,59.38
2023-04-09T00:51:23.302Z,61.04
2023-04-09T00:53:00.112Z,62.21
2023-04-09T00:54:45.057Z,63.93
2023-04-09T00:56:30.236Z,62.81
2023-04-09T00:58:06.745Z,59.48
2023-04-09T00:59:28.597Z,56.69
2023-04-09T01:00:59.925Z,56.21
2023-04-09T01:02:33.594Z,57.21
2023-04-09T01:04:24.183Z,58.85
2023-04-09T01:05:57.921Z,60.47
2023-04-09T01:07:31.485Z,61.98
2023-04-09T01:09:16.613Z,63.43
2023-04-09T01:10:52.080Z,63.59
2023-04-09T01:12:25.632Z,60.79
2023-04-09T01:13:47.514Z,58.01
2023-04-09T01:15:20.804Z,55.99
2023-04-09T01:16:50.026Z,56.45
2023-04-09T01:18:16.573Z,57.84
2023-04-09T01:19:50.026Z,59.10
2023-04-09T01:21:11.501Z,60.59
2023-04-09T01:22:47.305Z,61.83
2023-04-09T01:24:32.805Z,63.23
2023-04-09T01:26:04.116Z,63.57
2023-04-09T01:27:45.582Z,61.06
2023-04-09T01:29:07.695Z,58.02
2023-04-09T01:30:52.712Z,55.89
2023-04-09T01:32:33.418Z,56.86
2023-04-09T01:33:55.094Z,58.24
2023-04-09T01:35:40.110Z,59.84
2023-04-09T01:37:15.516Z,61.21
2023-04-09T01:39:02.780Z,62.58
2023-04-09T01:40:38.645Z,64.04
2023-04-09T01:42:12.279Z,62.61
2023-04-09T01:43:45.832Z,59.25
2023-04-09T01:45:19.311Z,56.18
2023-04-09T01:47:13.825Z,56.09
2023-04-09T01:48:54.776Z,57.73
2023-04-09T01:50:40.073Z,59.44
2023-04-09T01:52:25.060Z,60.91
2023-04-09T01:54:10.427Z,62.26
2023-04-09T01:55:55.515Z,64.30
2023-04-09T01:57:49.812Z,63.06
2023-04-09T01:59:34.788Z,59.39
2023-04-09T02:01:27.589Z,56.56
2023-04-09T02:03:21.915Z,56.81
2023-04-09T02:05:16.809Z,58.70
2023-04-09T02:07:01.993Z,60.75
2023-04-09T02:08:47.300Z,62.41
2023-04-09T02:10:12.000Z,64.33
2023-04-09T02:11:56.996Z,63.10
2023-04-09T02:13:38.707Z,59.98
2023-04-09T02:15:11.880Z,56.64
2023-04-09T02:16:52.966Z,56.44
2023-04-09T02:18:38.983Z,57.88
2023-04-09T02:20:32.205Z,59.74
2023-04-09T02:22:08.737Z,61.39
2023-04-09T02:23:49.998Z,63.06
2023-04-09T02:25:35.139Z,64.09
2023-04-09T02:27:10.579Z,61.69
2023-04-09T02:28:39.873Z,59.04
2023-04-09T02:30:15.792Z,56.47
2023-04-09T02:32:09.040Z,56.82
2023-04-09T02:33:55.519Z,58.65
2023-04-09T02:35:19.895Z,60.43
2023-04-09T02:36:43.726Z,61.64
2023-04-09T02:38:18.830Z,63.08
2023-04-09T02:39:55.053Z,64.14
2023-04-09T02:41:18.974Z,62.53
2023-04-09T02:42:59.490Z,59.75
2023-04-09T02:44:44.780Z,56.74
2023-04-09T02:46:29.939Z,56.92
2023-04-09T02:48:05.763Z,58.58
2023-04-09T02:49:30.116Z,60.13
2023-04-09T02:51:06.465Z,61.90
2023-04-09T02:52:28.667Z,63.65
2023-04-09T02:54:19.008Z,65.01
2023-04-09T02:56:08.196Z,62.19
2023-04-09T02:57:53.712Z,58.83
2023-04-09T02:59:47.143Z,56.54
2023-04-09T03:01:32.216Z,57.67
2023-04-09T03:03:22.082Z,59.49
2023-04-09T03:04:53.834Z,61.22
2023-04-09T03:06:23.146Z,62.85
2023-04-09T03:07:56.601Z,64.56
2023-04-09T03:09:42.158Z,63.08
2023-04-09T03:11:15.861Z,60.20
2023-04-09T03:12:47.790Z,57.80
2023-04-09T03:14:30.929Z,56.78
2023-04-09T03:18:32.591Z,60.73
2023-04-09T03:20:06.146Z,62.81
2023-04-09T03:21:49.193Z,64.77
2023-04-09T03:23:34.331Z,63.12
2023-04-09T03:25:27.985Z,60.04
2023-04-09T03:27:02.437Z,56.84
2023-04-09T03:28:25.266Z,56.91
2023-04-09T03:30:12.531Z,58.23
2023-04-09T03:31:50.043Z,60.18
2023-04-09T03:33:26.231Z,61.89
2023-04-09T03:34:58.008Z,63.68
2023-04-09T03:36:31.663Z,64.59
2023-04-09T03:38:35.865Z,62.04
2023-04-09T03:40:25.656Z,58.50
2023-04-09T03:42:04.608Z,56.65
2023-04-09T03:43:46.787Z,57.73
2023-04-09T03:45:20.883Z,59.58
2023-04-09T03:47:07.345Z,61.27
2023-04-09T03:49:01.274Z,63.36
2023-04-09T03:51:00.933Z,63.90
2023-04-09T03:53:00.718Z,60.56
2023-04-09T03:54:46.040Z,57.16
2023-04-09T03:56:34.445Z,56.89
2023-04-09T03:58:27.793Z,58.57
2023-04-09T04:00:01.488Z,60.57
2023-04-09T04:01:49.209Z,62.14
2023-04-09T04:03:22.974Z,64.25
2023-04-09T04:05:22.949Z,63.84
2023-04-09T04:07:08.140Z,60.73
2023-04-09T04:08:51.814Z,57.76
2023-04-09T04:10:32.925Z,56.98
2023-04-09T04:12:08.082Z,58.28
2023-04-09T04:14:09.249Z,60.48
2023-04-09T04:15:44.791Z,62.54
2023-04-09T04:17:19.373Z,64.57
2023-04-09T04:18:55.083Z,64.20
2023-04-09T04:20:21.593Z,61.71
2023-04-09T04:22:26.267Z,58.77
2023-04-09T04:24:13.118Z,56.95
2023-04-09T04:25:57.967Z,58.24
2023-04-09T04:27:35.987Z,60.18
2023-04-09T04:29:29.525Z,62.25
2023-04-09T04:31:14.116Z,64.49
2023-04-09T04:32:38.811Z,63.61
2023-04-09T04:34:15.154Z,61.22
2023-04-09T04:36:09.875Z,58.16
2023-04-09T04:37:46.862Z,56.85
2023-04-09T04:39:22.867Z,58.09
2023-04-09T04:41:23.145Z,60.01
2023-04-09T04:43:12.509Z,62.16
2023-04-09T04:45:06.706Z,64.54
2023-04-09T04:47:10.116Z,63.44
2023-04-09T04:48:55.206Z,60.04
2023-04-09T04:50:41.358Z,56.99
2023-04-09T04:52:26.857Z,57.08
2023-04-09T04:54:03.515Z,58.91
2023-04-09T04:55:39.811Z,60.62
2023-04-09T04:57:11.591Z,62.29
2023-04-09T04:58:47.298Z,64.12
2023-04-09T05:00:23.153Z,64.09
2023-04-09T05:02:06.461Z,61.39
2023-04-09T05:03:56.881Z,58.25
2023-04-09T05:05:37.412Z,56.60
2023-04-09T05:07:13.272Z,57.87
2023-04-09T05:09:08.988Z,59.75
2023-04-09T05:10:59.931Z,62.06
2023-04-09T05:12:41.458Z,64.20
2023-04-09T05:14:18.494Z,63.71
2023-04-09T05:15:41.218Z,61.04
2023-04-09T05:17:34.439Z,58.30
2023-04-09T05:19:15.280Z,56.72
2023-04-09T05:20:50.835Z,57.75
2023-04-09T05:22:36.139Z,59.85
2023-04-09T05:23:58.414Z,61.57
2023-04-09T05:25:43.639Z,63.47
2023-04-09T05:27:28.533Z,64.35
2023-04-09T05:29:25.573Z,61.52
2023-04-09T05:31:11.779Z,57.95
2023-04-09T05:33:09.391Z,56.52
2023-04-09T05:34:56.741Z,58.05
2023-04-09T05:36:43.986Z,59.96
2023-04-09T05:38:17.186Z,61.71
2023-04-09T05:39:50.939Z,63.73
2023-04-09T05:41:36.349Z,64.26
2023-04-09T05:43:29.948Z,61.29
2023-04-09T05:45:14.821Z,58.26
2023-04-09T05:47:00.463Z,56.74
2023-04-09T05:48:52.958Z,57.92
2023-04-09T05:50:29.577Z,59.95
2023-04-09T05:52:04.602Z,61.13
2023-04-09T05:53:41.843Z,62.54
2023-04-09T05:55:18.077Z,64.71
2023-04-09T05:56:57.287Z,62.83
2023-04-09T05:58:24.665Z,60.56
2023-04-09T06:00:09.831Z,57.54
2023-04-09T06:01:53.080Z,56.68
2023-04-09T06:03:38.666Z,58.22
2023-04-09T06:05:13.884Z,59.92
2023-04-09T06:06:36.044Z,61.31
2023-04-09T06:08:20.827Z,63.02
2023-04-09T06:09:54.628Z,64.85
2023-04-09T06:11:27.853Z,63.60
2023-04-09T06:13:16.087Z,60.55
2023-04-09T06:15:00.876Z,57.65
2023-04-09T06:16:37.576Z,56.77
2023-04-09T06:18:11.065Z,58.37
2023-04-09T06:19:44.518Z,60.09
2023-04-09T06:21:06.452Z,62.02
2023-04-09T06:22:39.795Z,64.21
2023-04-09T06:24:19.365Z,64.51
2023-04-09T06:25:52.773Z,62.12
2023-04-09T06:27:34.899Z,58.73
2023-04-09T06:29:08.582Z,56.31
2023-04-09T06:31:00.259Z,56.96
2023-04-09T06:32:53.648Z,59.40
2023-04-09T06:34:30.276Z,61.92
2023-04-09T06:36:01.661Z,64.14
2023-04-09T06:37:25.906Z,64.48
2023-04-09T06:38:59.585Z,62.72
2023-04-09T06:40:44.553Z,59.46
2023-04-09T06:42:17.986Z,55.74
2023-04-09T06:44:15.225Z,56.16
2023-04-09T06:45:51.111Z,57.31
2023-04-09T06:47:12.763Z,59.09
2023-04-09T06:48:48.094Z,60.63
2023-04-09T06:50:23.288Z,61.24
2023-04-09T06:51:59.273Z,63.35
2023-04-09T06:53:44.598Z,63.58
2023-04-09T06:55:21.616Z,61.16
2023-04-09T06:56:57.693Z,57.75
2023-04-09T06:58:42.940Z,56.40
2023-04-09T07:00:16.506Z,57.35
2023-04-09T07:01:57.729Z,58.96
2023-04-09T07:03:39.025Z,60.65
2023-04-09T07:05:24.581Z,62.16
2023-04-09T07:07:00.292Z,64.53
2023-04-09T07:08:34.624Z,63.17
2023-04-09T07:10:10.241Z,60.19
2023-04-09T07:11:39.400Z,57.80
2023-04-09T07:13:15.491Z,56.53
2023-04-09T07:14:48.933Z,57.28
2023-04-09T07:16:26.111Z,58.60
2023-04-09T07:18:08.826Z,59.97
2023-04-09T07:19:54.404Z,61.94
2023-04-09T07:21:30.223Z,63.44
2023-04-09T07:23:18.944Z,63.74
2023-04-09T07:25:04.028Z,59.30
2023-04-09T07:26:40.048Z,56.23
2023-04-09T07:28:11.441Z,56.95
2023-04-09T07:30:05.355Z,58.18
2023-04-09T07:31:51.076Z,59.62
2023-04-09T07:33:27.258Z,61.23
2023-04-09T07:35:20.766Z,62.39
2023-04-09T07:37:08.170Z,63.58
2023-04-09T07:38:53.425Z,61.36
2023-04-09T07:40:29.869Z,57.88
2023-04-09T07:42:15.966Z,55.08
2023-04-09T07:43:57.214Z,56.28
2023-04-09T07:45:32.746Z,57.79
2023-04-09T07:47:22.367Z,58.86
2023-04-09T07:49:08.963Z,60.32
2023-04-09T07:50:45.202Z,60.97
2023-04-09T07:52:30.049Z,61.45
2023-04-09T07:54:15.316Z,62.77
2023-04-09T07:55:51.482Z,63.11
2023-04-09T07:57:17.763Z,61.49
2023-04-09T07:58:54.708Z,58.24
2023-04-09T08:00:24.355Z,55.25
2023-04-09T08:01:56.594Z,55.96
2023-04-09T08:03:41.824Z,57.80
2023-04-09T08:05:13.583Z,59.30
2023-04-09T08:07:06.734Z,59.57
2023-04-09T08:08:40.699Z,58.56
2023-04-09T08:10:13.893Z,58.80
2023-04-09T08:11:45.562Z,60.46
2023-04-09T08:13:12.128Z,62.01
2023-04-09T08:14:45.621Z,61.72
2023-04-09T08:16:30.953Z,60.96
2023-04-09T08:18:19.399Z,61.82
2023-04-09T08:19:50.992Z,62.39
2023-04-09T08:21:33.461Z,63.25
2023-04-09T08:23:09.358Z,61.64
2023-04-09T08:24:36.100Z,59.04
2023-04-09T08:26:11.871Z,56.06
2023-04-09T08:27:57.452Z,54.14
2023-04-09T08:29:18.886Z,55.63
2023-04-09T08:30:54.730Z,56.45
2023-04-09T08:32:40.125Z,57.69
2023-04-09T08:34:29.302Z,59.00
2023-04-09T08:36:16.302Z,59.67
2023-04-09T08:37:40.451Z,58.28
2023-04-09T08:39:25.495Z,58.73
2023-04-09T08:40:59.011Z,59.54
2023-04-09T08:42:32.553Z,59.47
2023-04-09T08:43:58.958Z,59.58
2023-04-09T08:45:24.147Z,59.25
2023-04-09T08:47:17.437Z,59.76
2023-04-09T08:48:53.121Z,59.13
2023-04-09T08:50:28.855Z,61.29
2023-04-09T08:52:09.521Z,60.94
2023-04-09T08:53:50.645Z,60.30
2023-04-09T08:55:35.494Z,59.69
2023-04-09T08:57:04.595Z,60.43
2023-04-09T08:58:38.215Z,60.03
2023-04-09T09:00:18.092Z,61.24
2023-04-09T09:01:42.292Z,60.70
2023-04-09T09:03:15.993Z,60.67
2023-04-09T09:05:02.324Z,61.05
2023-04-09T09:06:32.608Z,62.71
2023-04-09T09:08:06.292Z,62.72
2023-04-09T09:09:43.310Z,59.38
2023-04-09T09:11:14.666Z,55.39
2023-04-09T09:12:47.573Z,53.82
2023-04-09T09:14:21.219Z,54.36
2023-04-09T09:15:50.426Z,55.16
2023-04-09T09:17:35.797Z,54.78
2023-04-09T09:19:07.229Z,54.75
2023-04-09T09:20:54.421Z,54.67
2023-04-09T09:22:30.550Z,54.85
2023-04-09T09:24:04.076Z,55.51
2023-04-09T09:25:49.382Z,55.59
2023-04-09T09:27:34.336Z,56.16
2023-04-09T09:28:58.715Z,56.93
2023-04-09T09:30:44.129Z,55.98
2023-04-09T09:32:19.745Z,56.04
2023-04-09T09:34:05.766Z,56.80
2023-04-09T09:35:51.097Z,58.02
2023-04-09T09:37:36.179Z,57.08
2023-04-09T09:39:18.855Z,57.14
2023-04-09T09:41:12.186Z,57.08
2023-04-09T09:42:34.144Z,57.51
2023-04-09T09:44:07.134Z,57.88
2023-04-09T09:45:52.286Z,57.49
2023-04-09T09:47:38.148Z,58.63
2023-04-09T09:49:11.654Z,57.77
2023-04-09T09:50:57.034Z,57.71
2023-04-09T09:52:30.400Z,56.92
2023-04-09T09:54:04.035Z,56.84
2023-04-09T09:55:37.860Z,56.63
2023-04-09T09:57:23.307Z,55.72
2023-04-09T09:59:08.310Z,56.83
2023-04-09T10:00:53.206Z,56.11
2023-04-09T10:02:17.425Z,54.39
2023-04-09T10:03:51.642Z,55.26
2023-04-09T10:05:36.643Z,53.72
2023-04-09T10:07:10.581Z,53.56
2023-04-09T10:08:45.022Z,53.96
2023-04-09T10:10:18.487Z,53.83
2023-04-09T10:12:00.611Z,53.33
2023-04-09T10:13:34.644Z,53.56
2023-04-09T10:14:56.494Z,53.37
2023-04-09T10:16:41.785Z,53.89
2023-04-09T10:18:15.775Z,53.96
2023-04-09T10:19:56.675Z,54.44
2023-04-09T10:21:28.603Z,54.38
2023-04-09T10:23:17.835Z,54.68
2023-04-09T10:24:58.782Z,55.52
2023-04-09T10:26:32.789Z,56.00
2023-04-09T10:28:06.381Z,56.20
2023-04-09T10:29:42.112Z,56.50
2023-04-09T10:31:27.503Z,56.98
2023-04-09T10:33:21.209Z,57.92
2023-04-09T10:34:57.134Z,58.30
2023-04-09T10:36:33.245Z,58.94
2023-04-09T10:38:18.409Z,59.37
2023-04-09T10:39:54.466Z,58.66
2023-04-09T10:41:35.172Z,59.58
2023-04-09T10:43:16.245Z,59.55
2023-04-09T10:44:41.359Z,59.97
2023-04-09T10:46:26.703Z,59.68
2023-04-09T10:47:52.278Z,60.00
2023-04-09T10:49:23.465Z,60.41
2023-04-09T10:51:17.971Z,60.80
2023-04-09T10:52:51.663Z,60.69
2023-04-09T10:54:25.191Z,60.52
2023-04-09T10:56:19.882Z,60.83
2023-04-09T10:58:05.178Z,61.42
2023-04-09T10:59:41.085Z,61.92
2023-04-09T11:01:21.932Z,63.62
2023-04-09T11:02:55.339Z,62.67
2023-04-09T11:04:17.127Z,59.45
2023-04-09T11:06:02.015Z,55.85
2023-04-09T11:07:56.873Z,54.55
2023-04-09T11:09:38.173Z,56.32
2023-04-09T11:11:23.041Z,57.13
2023-04-09T11:13:17.889Z,58.15
2023-04-09T11:14:53.351Z,59.22
2023-04-09T11:16:29.026Z,59.14
2023-04-09T11:18:13.928Z,60.06
2023-04-09T11:19:37.859Z,60.57
2023-04-09T11:21:22.898Z,60.67
2023-04-09T11:22:58.789Z,60.76
2023-04-09T11:24:40.437Z,60.28
2023-04-09T11:26:13.556Z,60.48
2023-04-09T11:27:59.216Z,60.32
2023-04-09T11:29:34.728Z,61.06
2023-04-09T11:31:10.279Z,61.00
2023-04-09T11:32:46.379Z,61.95
2023-04-09T11:34:21.715Z,62.81
2023-04-09T11:35:56.910Z,61.07
2023-04-09T11:37:32.687Z,57.64
2023-04-09T11:39:04.064Z,55.36
2023-04-09T11:40:49.813Z,55.11
2023-04-09T11:42:35.255Z,56.06
2023-04-09T11:44:16.428Z,57.08
2023-04-09T11:45:50.029Z,57.02
2023-04-09T11:47:23.799Z,57.47
2023-04-09T11:49:00.007Z,57.99
2023-04-09T11:50:36.011Z,58.39
2023-04-09T11:52:11.541Z,59.07
2023-04-09T11:53:52.639Z,58.97
2023-04-09T11:55:26.379Z,59.39
2023-04-09T11:57:00.482Z,59.39
2023-04-09T11:58:29.602Z,60.15
2023-04-09T12:00:01.631Z,60.42
2023-04-09T12:01:39.223Z,61.33
2023-04-09T12:03:03.653Z,61.81
2023-04-09T12:04:35.441Z,61.81
2023-04-09T12:06:23.694Z,61.98
2023-04-09T12:07:57.235Z,62.81
2023-04-09T12:09:31.326Z,64.46
2023-04-09T12:11:25.091Z,61.76
2023-04-09T12:13:14.883Z,57.27
2023-04-09T12:14:57.120Z,55.21
2023-04-09T12:16:36.014Z,54.24
2023-04-09T12:18:00.264Z,56.00
2023-04-09T12:19:29.705Z,55.62
2023-04-09T12:21:01.059Z,56.10
2023-04-09T12:22:36.173Z,56.84
2023-04-09T12:24:29.294Z,57.45
2023-04-09T12:26:01.473Z,58.53
2023-04-09T12:27:44.371Z,58.33
2023-04-09T12:29:17.910Z,57.96
2023-04-09T12:31:02.739Z,58.24
2023-04-09T12:32:36.502Z,58.47
2023-04-09T12:34:00.672Z,59.00
2023-04-09T12:35:38.021Z,59.16
2023-04-09T12:37:24.229Z,60.06
2023-04-09T12:39:17.892Z,60.28
2023-04-09T12:40:53.222Z,60.79
2023-04-09T12:42:27.094Z,61.62
2023-04-09T12:44:09.026Z,61.84
2023-04-09T12:45:54.463Z,62.19
2023-04-09T12:47:35.701Z,63.22
2023-04-09T12:48:59.812Z,64.41
2023-04-09T12:50:33.613Z,61.62
2023-04-09T12:52:18.515Z,57.46
2023-04-09T12:53:54.017Z,55.32
2023-04-09T12:55:41.546Z,55.98
2023-04-09T12:57:27.355Z,56.20
2023-04-09T12:59:20.819Z,57.64
2023-04-09T13:01:14.265Z,58.91
2023-04-09T13:03:09.016Z,59.60
2023-04-09T13:04:35.741Z,59.83
2023-04-09T13:06:07.347Z,59.90
2023-04-09T13:07:31.380Z,60.87
2023-04-09T13:09:25.899Z,60.97
2023-04-09T13:10:49.973Z,61.72
2023-04-09T13:12:32.888Z,61.55
2023-04-09T13:14:22.882Z,61.99
2023-04-09T13:15:49.276Z,62.95
2023-04-09T13:17:34.406Z,63.74
2023-04-09T13:19:10.209Z,60.09
2023-04-09T13:20:46.179Z,56.39
2023-04-09T13:22:27.069Z,54.92
2023-04-09T13:24:03.361Z,54.77
2023-04-09T13:25:44.388Z,55.35
2023-04-09T13:27:17.833Z,56.12
2023-04-09T13:29:07.774Z,57.41
2023-04-09T13:30:32.129Z,57.38
2023-04-09T13:31:56.192Z,58.30
2023-04-09T13:33:41.362Z,58.54
2023-04-09T13:35:26.592Z,58.19
2023-04-09T13:37:20.169Z,58.43
2023-04-09T13:38:59.158Z,58.16
2023-04-09T13:40:39.952Z,58.78
2023-04-09T13:42:33.894Z,59.71
2023-04-09T13:43:55.516Z,59.58
2023-04-09T13:45:31.177Z,59.93
2023-04-09T13:47:04.887Z,60.28
2023-04-09T13:48:34.083Z,60.85
2023-04-09T13:50:19.228Z,60.92
2023-04-09T13:51:52.828Z,61.48
2023-04-09T13:53:38.380Z,61.07
2023-04-09T13:55:09.581Z,60.74
2023-04-09T13:57:03.995Z,60.49
2023-04-09T13:58:51.502Z,60.11
2023-04-09T14:00:25.738Z,59.40
2023-04-09T14:04:21.904Z,60.12
2023-04-09T14:05:55.819Z,58.45
2023-04-09T14:07:29.226Z,57.91
2023-04-09T14:09:16.074Z,57.14
2023-04-09T14:10:37.963Z,56.63
2023-04-09T14:12:22.960Z,55.89
2023-04-09T14:14:05.916Z,55.75
2023-04-09T14:15:41.769Z,54.95
2023-04-09T14:17:18.227Z,54.76
2023-04-09T14:18:49.470Z,54.90
2023-04-09T14:20:27.136Z,55.00
2023-04-09T14:22:00.854Z,55.24
2023-04-09T14:23:34.977Z,55.31
2023-04-09T14:25:08.275Z,55.86
2023-04-09T14:27:02.881Z,55.55
2023-04-09T14:28:48.310Z,56.18
2023-04-09T14:30:21.935Z,56.81
2023-04-09T14:31:51.790Z,56.88
2023-04-09T14:33:37.208Z,57.27
2023-04-09T14:35:22.015Z,57.95
2023-04-09T14:37:04.906Z,58.33
2023-04-09T14:38:38.854Z,58.13
2023-04-09T14:40:00.729Z,57.87
2023-04-09T14:41:45.923Z,58.81
2023-04-09T14:43:19.202Z,59.80
2023-04-09T14:44:52.846Z,60.22
2023-04-09T14:46:26.253Z,59.88
2023-04-09T14:47:59.463Z,59.17
2023-04-09T14:49:29.044Z,59.31
2023-04-09T14:51:00.497Z,59.93
2023-04-09T14:52:34.010Z,60.13
2023-04-09T14:53:55.770Z,59.10
2023-04-09T14:55:41.374Z,59.59
2023-04-09T14:57:26.266Z,59.71
2023-04-09T14:58:59.965Z,59.52
2023-04-09T15:00:45.702Z,59.88
2023-04-09T15:02:26.492Z,60.18
2023-04-09T15:04:11.553Z,60.50
2023-04-09T15:06:05.908Z,59.48
2023-04-09T15:07:39.642Z,60.00
2023-04-09T15:09:15.344Z,60.25
2023-04-09T15:10:50.865Z,59.60
2023-04-09T15:12:26.553Z,60.31
2023-04-09T15:14:07.190Z,60.31
2023-04-09T15:15:48.327Z,60.49
2023-04-09T15:17:32.803Z,61.02
2023-04-09T15:19:06.971Z,60.88
2023-04-09T15:21:00.962Z,60.93
2023-04-09T15:22:34.543Z,59.42
2023-04-09T15:23:58.878Z,59.87
2023-04-09T15:25:32.966Z,59.84
2023-04-09T15:27:18.085Z,60.09
2023-04-09T15:28:53.771Z,60.56
2023-04-09T15:30:23.304Z,61.20
2023-04-09T15:31:59.636Z,61.98
2023-04-09T15:33:33.995Z,62.72
2023-04-09T15:35:00.139Z,63.03
2023-04-09T15:36:45.390Z,60.49
2023-04-09T15:38:11.846Z,56.84
2023-04-09T15:39:47.840Z,55.32
2023-04-09T15:41:28.734Z,55.65
2023-04-09T15:42:55.060Z,56.87
2023-04-09T15:44:28.832Z,58.04
2023-04-09T15:46:02.046Z,59.20
2023-04-09T15:47:44.117Z,60.13
2023-04-09T15:49:34.012Z,61.36
2023-04-09T15:51:13.200Z,61.53
2023-04-09T15:52:58.422Z,62.06
2023-04-09T15:54:43.722Z,62.91
2023-04-09T15:56:17.180Z,63.12
2023-04-09T15:57:41.214Z,60.93
2023-04-09T15:59:26.156Z,57.74
2023-04-09T16:00:51.344Z,55.50
2023-04-09T16:02:27.893Z,55.81
2023-04-09T16:04:21.184Z,57.04
2023-04-09T16:06:10.925Z,58.61
2023-04-09T16:07:59.065Z,59.90
2023-04-09T16:09:24.019Z,60.77
2023-04-09T16:10:59.362Z,61.52
2023-04-09T16:12:28.719Z,62.43
2023-04-09T16:14:01.774Z,63.16
2023-04-09T16:15:35.549Z,62.41
2023-04-09T16:17:20.729Z,59.40
2023-04-09T16:18:45.205Z,56.16
2023-04-09T16:20:26.134Z,55.30
2023-04-09T16:22:11.029Z,56.43
2023-04-09T16:23:44.471Z,57.62
2023-04-09T16:25:29.722Z,58.52
2023-04-09T16:27:14.401Z,59.57
2023-04-09T16:29:04.940Z,60.69
2023-04-09T16:30:27.177Z,61.61
2023-04-09T16:31:57.515Z,62.33
2023-04-09T16:33:40.565Z,63.23
2023-04-09T16:35:14.011Z,63.16
2023-04-09T16:36:50.601Z,60.44
2023-04-09T16:38:27.614Z,56.96
2023-04-09T16:39:51.708Z,55.92
2023-04-09T16:41:37.203Z,56.67
2023-04-09T16:43:01.273Z,58.03
2023-04-09T16:44:42.306Z,59.27
2023-04-09T16:46:11.255Z,60.67
2023-04-09T16:48:01.344Z,61.98
2023-04-09T16:49:46.989Z,63.37
2023-04-09T16:51:10.495Z,63.64
2023-04-09T16:52:44.552Z,60.96
2023-04-09T16:54:08.548Z,58.11
2023-04-09T16:56:00.232Z,56.22
2023-04-09T16:57:36.106Z,56.82
2023-04-09T16:59:21.365Z,58.26
2023-04-09T17:01:01.895Z,59.75
2023-04-09T17:02:47.223Z,61.22
2023-04-09T17:04:09.501Z,62.34
2023-04-09T17:05:54.258Z,63.99
2023-04-09T17:07:29.648Z,62.77
2023-04-09T17:09:05.239Z,60.22
2023-04-09T17:10:35.267Z,57.16
2023-04-09T17:12:16.083Z,56.37
2023-04-09T17:13:49.253Z,57.72
2023-04-09T17:15:24.992Z,59.31
2023-04-09T17:17:08.027Z,60.46
2023-04-09T17:18:45.530Z,62.10
2023-04-09T17:20:31.206Z,63.93
2023-04-09T17:22:11.574Z,63.69
2023-04-09T17:23:42.899Z,60.81
2023-04-09T17:25:05.038Z,57.91
2023-04-09T17:26:38.990Z,56.38
2023-04-09T17:28:05.022Z,56.98
2023-04-09T17:29:38.306Z,58.52
2023-04-09T17:31:13.726Z,59.99
2023-04-09T17:32:47.624Z,61.20
2023-04-09T17:34:28.996Z,62.62
2023-04-09T17:35:51.169Z,63.96
2023-04-09T17:37:13.174Z,62.74
2023-04-09T17:39:01.950Z,59.92
2023-04-09T17:40:48.952Z,56.50
2023-04-09T17:42:14.581Z,56.21
2023-04-09T17:43:48.526Z,57.29
2023-04-09T17:45:22.216Z,59.07
2023-04-09T17:46:46.468Z,60.33
2023-04-09T17:48:18.128Z,61.55
2023-04-09T17:50:07.752Z,63.06
2023-04-09T17:51:41.285Z,63.78
2023-04-09T17:53:22.952Z,61.34
2023-04-09T17:55:02.192Z,58.17
2023-04-09T17:56:38.760Z,56.42
2023-04-09T17:58:15.269Z,57.54
2023-04-09T17:59:41.866Z,59.13
2023-04-09T18:01:15.577Z,60.60
2023-04-09T18:02:49.684Z,62.29
2023-04-09T18:04:29.235Z,63.92
2023-04-09T18:06:01.020Z,63.39
2023-04-09T18:07:37.158Z,60.97
2023-04-09T18:09:00.832Z,58.39
2023-04-09T18:10:37.372Z,56.83
2023-04-09T18:12:01.312Z,57.55
2023-04-09T18:13:35.518Z,59.36
2023-04-09T18:15:09.533Z,61.16
2023-04-09T18:16:43.862Z,62.60
2023-04-09T18:18:29.670Z,64.66
2023-04-09T18:20:15.141Z,63.12
2023-04-09T18:21:51.405Z,60.32
2023-04-09T18:23:27.838Z,58.09
2023-04-09T18:25:03.790Z,57.09
2023-04-09T18:26:37.700Z,58.45
2023-04-09T18:28:01.919Z,60.15
2023-04-09T18:29:36.243Z,61.69
2023-04-09T18:31:10.104Z,63.89
2023-04-09T18:33:03.522Z,64.57
2023-04-09T18:34:48.400Z,62.03
2023-04-09T18:36:21.891Z,59.61
2023-04-09T18:37:44.215Z,57.58
2023-04-09T18:39:25.747Z,57.65
2023-04-09T18:41:06.722Z,59.51
2023-04-09T18:42:28.705Z,61.17
2023-04-09T18:44:09.096Z,63.32
2023-04-09T18:45:36.686Z,65.00
2023-04-09T18:47:11.299Z,63.53
2023-04-09T18:48:46.993Z,60.81
2023-04-09T18:50:19.055Z,58.83
2023-04-09T18:51:52.945Z,57.36
2023-04-09T18:53:26.842Z,58.38
2023-04-09T18:55:11.863Z,60.14
2023-04-09T18:56:38.514Z,62.23
2023-04-09T18:58:17.555Z,64.46
2023-04-09T18:59:51.633Z,64.11
2023-04-09T19:01:37.321Z,61.83
2023-04-09T19:03:24.061Z,59.45
2023-04-09T19:04:58.571Z,57.45
2023-04-09T19:06:36.154Z,58.08
2023-04-09T19:08:07.478Z,59.82
2023-04-09T19:09:43.422Z,61.58
2023-04-09T19:11:17.245Z,63.86
2023-04-09T19:12:59.108Z,64.95
2023-04-09T19:14:45.493Z,63.00
2023-04-09T19:16:19.117Z,60.31
2023-04-09T19:18:04.615Z,58.24
2023-04-09T19:19:34.005Z,57.60
2023-04-09T19:21:09.702Z,59.00
2023-04-09T19:22:55.548Z,61.20
2023-04-09T19:24:25.578Z,63.47
2023-04-09T19:25:55.058Z,64.96
2023-04-09T19:27:28.551Z,63.94
2023-04-09T19:29:13.163Z,61.49
2023-04-09T19:30:58.256Z,59.19
2023-04-09T19:32:39.440Z,57.58
2023-04-09T19:34:20.543Z,58.65
2023-04-09T19:35:42.279Z,60.38
2023-04-09T19:37:27.176Z,62.22
2023-04-09T19:39:12.611Z,65.19
2023-04-09T19:40:46.667Z,64.35
2023-04-09T19:45:57.086Z,57.67
2023-04-09T19:47:28.992Z,58.41
2023-04-09T19:49:02.392Z,59.91
2023-04-09T19:50:24.671Z,62.24
2023-04-09T19:52:09.510Z,64.27
2023-04-09T19:53:33.557Z,64.23
2023-04-09T19:55:06.546Z,61.91
2023-04-09T19:56:48.056Z,59.73
2023-04-09T19:58:33.764Z,57.60
2023-04-09T19:59:58.634Z,57.96
2023-04-09T20:01:35.007Z,59.73
2023-04-09T20:02:59.085Z,61.58
2023-04-09T20:04:21.258Z,63.63
2023-04-09T20:06:06.255Z,64.47
2023-04-09T20:07:53.369Z,62.38
2023-04-09T20:09:17.176Z,60.16
2023-04-09T20:10:47.267Z,58.08
2023-04-09T20:12:28.327Z,57.79
2023-04-09T20:14:13.693Z,59.58
2023-04-09T20:16:02.301Z,61.75
2023-04-09T20:17:47.874Z,64.50
2023-04-09T21:42:06.439Z,59.82
2023-04-09T21:43:31.121Z,58.63
2023-04-09T21:44:52.776Z,59.62
2023-04-09T21:46:26.645Z,61.24
2023-04-09T21:48:00.199Z,63.50
2023-04-09T21:49:46.392Z,64.93
2023-04-09T21:51:27.619Z,62.94
2023-04-09T21:53:12.856Z,60.49
2023-04-09T21:54:44.195Z,58.26
2023-04-09T21:56:19.556Z,57.53
2023-04-09T21:57:59.301Z,58.95
2023-04-09T21:59:44.328Z,61.08
2023-04-09T22:01:28.610Z,63.69
2023-04-09T22:03:03.709Z,64.93
2023-04-09T22:04:57.023Z,62.81
2023-04-09T22:06:32.544Z,60.10
2023-04-09T22:08:13.012Z,57.98
2023-04-09T22:09:58.182Z,57.74
2023-04-09T22:11:43.595Z,59.76
2023-04-09T22:13:19.575Z,61.94
2023-04-09T22:15:05.254Z,64.33
2023-04-09T22:16:50.247Z,64.83
2023-04-09T22:18:23.967Z,62.18
2023-04-09T22:20:00.046Z,59.94
2023-04-09T22:21:33.347Z,58.15
2023-04-09T22:23:26.609Z,57.90
2023-04-09T22:25:07.069Z,59.91
2023-04-09T22:26:55.523Z,62.33
2023-04-09T22:28:50.336Z,64.87
2023-04-09T22:30:23.725Z,63.61
2023-04-09T22:31:58.118Z,61.02
2023-04-09T22:33:31.735Z,59.00
2023-04-09T22:35:19.011Z,57.54
2023-04-09T22:36:59.926Z,58.72